sensor_id;sensor_type;location;lat;lon;timestamp;P1;P2;P0
62054;PMS5003;48653;51.742;-1.256;2023-03-20T00:03:43;3;1;
62054;PMS5003;48653;51.742;-1.256;2023-03-20T00:06:12;5;3;
62054;PMS5003;48653;51.742;-1.256;2023-03-20T00:08:34;8;3;
62054;PMS5003;48653;51.742;-1.256;2023-03-20T00:10:59;6;2;
62054;PMS5003;48653;51.742;-1.256;2023-03-20T00:13:24;6;3;
62054;PMS5003;48653;51.742;-1.256;2023-03-20T00:15:49;10;6;
62054;PMS5003;48653;51.742;-1.256;2023-03-20T00:18:15;7;3;
62054;PMS5003;48653;51.742;-1.256;2023-03-20T00:20:40;6;4;
62054;PMS5003;48653;51.742;-1.256;2023-03-20T00:23:05;4;3;
62054;PMS5003;48653;51.742;-1.256;2023-03-20T00:25:31;3;3;
62054;PMS5003;48653;51.742;-1.256;2023-03-20T00:27:56;5;5;
62054;PMS5003;48653;51.742;-1.256;2023-03-20T00:30:23;7;3;
62054;PMS5003;48653;51.742;-1.256;2023-03-20T00:32:48;3;3;
62054;PMS5003;48653;51.742;-1.256;2023-03-20T00:35:16;12;7;
62054;PMS5003;48653;51.742;-1.256;2023-03-20T00:37:38;6;3;
62054;PMS5003;48653;51.742;-1.256;2023-03-20T00:40:03;7;5;
62054;PMS5003;48653;51.742;-1.256;2023-03-20T00:42:29;7;2;
62054;PMS5003;48653;51.742;-1.256;2023-03-20T00:44:54;6;4;
62054;PMS5003;48653;51.742;-1.256;2023-03-20T00:47:20;5;5;
62054;PMS5003;48653;51.742;-1.256;2023-03-20T00:49:45;8;3;
62054;PMS5003;48653;51.742;-1.256;2023-03-20T00:52:10;3;2;
62054;PMS5003;48653;51.742;-1.256;2023-03-20T00:54:35;8;4;
62054;PMS5003;48653;51.742;-1.256;2023-03-20T00:57:01;6;4;
62054;PMS5003;48653;51.742;-1.256;2023-03-20T00:59:26;10;3;
62054;PMS5003;48653;51.742;-1.256;2023-03-20T01:01:50;9;4;
62054;PMS5003;48653;51.742;-1.256;2023-03-20T01:04:16;6;3;
62054;PMS5003;48653;51.742;-1.256;2023-03-20T01:06:41;4;3;
62054;PMS5003;48653;51.742;-1.256;2023-03-20T01:09:06;3;3;
62054;PMS5003;48653;51.742;-1.256;2023-03-20T01:11:31;7;5;
62054;PMS5003;48653;51.742;-1.256;2023-03-20T01:13:56;8;5;
62054;PMS5003;48653;51.742;-1.256;2023-03-20T01:16:22;5;4;
62054;PMS5003;48653;51.742;-1.256;2023-03-20T01:18:47;1;0;
62054;PMS5003;48653;51.742;-1.256;2023-03-20T01:21:13;6;5;
62054;PMS5003;48653;51.742;-1.256;2023-03-20T01:23:38;10;5;
62054;PMS5003;48653;51.742;-1.256;2023-03-20T01:26:03;4;2;
62054;PMS5003;48653;51.742;-1.256;2023-03-20T01:28:28;4;3;
62054;PMS5003;48653;51.742;-1.256;2023-03-20T01:30:53;10;5;
62054;PMS5003;48653;51.742;-1.256;2023-03-20T01:33:20;7;5;
62054;PMS5003;48653;51.742;-1.256;2023-03-20T01:35:45;6;4;
62054;PMS5003;48653;51.742;-1.256;2023-03-20T01:38:11;5;4;
62054;PMS5003;48653;51.742;-1.256;2023-03-20T01:40:36;4;3;
62054;PMS5003;48653;51.742;-1.256;2023-03-20T01:43:00;4;2;
62054;PMS5003;48653;51.742;-1.256;2023-03-20T01:45:27;4;2;
62054;PMS5003;48653;51.742;-1.256;2023-03-20T01:47:50;5;4;
62054;PMS5003;48653;51.742;-1.256;2023-03-20T01:50:18;5;2;
62054;PMS5003;48653;51.742;-1.256;2023-03-20T01:52:40;7;6;
62054;PMS5003;48653;51.742;-1.256;2023-03-20T01:55:05;2;2;
62054;PMS5003;48653;51.742;-1.256;2023-03-20T01:57:31;5;5;
62054;PMS5003;48653;51.742;-1.256;2023-03-20T01:59:57;3;3;
62054;PMS5003;48653;51.742;-1.256;2023-03-20T02:02:22;3;3;
62054;PMS5003;48653;51.742;-1.256;2023-03-20T02:04:47;3;2;
62054;PMS5003;48653;51.742;-1.256;2023-03-20T02:07:12;4;3;
62054;PMS5003;48653;51.742;-1.256;2023-03-20T02:09:37;6;3;
62054;PMS5003;48653;51.742;-1.256;2023-03-20T02:12:02;7;4;
62054;PMS5003;48653;51.742;-1.256;2023-03-20T02:14:27;5;1;
62054;PMS5003;48653;51.742;-1.256;2023-03-20T02:16:53;9;4;
62054;PMS5003;48653;51.742;-1.256;2023-03-20T02:19:20;3;3;
62054;PMS5003;48653;51.742;-1.256;2023-03-20T02:21:51;4;3;
62054;PMS5003;48653;51.742;-1.256;2023-03-20T02:26:40;4;2;
62054;PMS5003;48653;51.742;-1.256;2023-03-20T02:29:09;6;5;
62054;PMS5003;48653;51.742;-1.256;2023-03-20T02:31:32;4;3;
62054;PMS5003;48653;51.742;-1.256;2023-03-20T02:38:44;7;3;
62054;PMS5003;48653;51.742;-1.256;2023-03-20T02:41:08;6;2;
62054;PMS5003;48653;51.742;-1.256;2023-03-20T02:43:34;6;4;
62054;PMS5003;48653;51.742;-1.256;2023-03-20T02:45:58;5;3;
62054;PMS5003;48653;51.742;-1.256;2023-03-20T02:48:26;3;3;
62054;PMS5003;48653;51.742;-1.256;2023-03-20T02:50:48;4;3;
62054;PMS5003;48653;51.742;-1.256;2023-03-20T02:53:16;5;3;
62054;PMS5003;48653;51.742;-1.256;2023-03-20T02:55:38;5;4;
62054;PMS5003;48653;51.742;-1.256;2023-03-20T02:58:06;7;5;
62054;PMS5003;48653;51.742;-1.256;2023-03-20T03:00:29;5;2;
62054;PMS5003;48653;51.742;-1.256;2023-03-20T03:02:56;7;4;
62054;PMS5003;48653;51.742;-1.256;2023-03-20T03:05:20;2;2;
62054;PMS5003;48653;51.742;-1.256;2023-03-20T03:07:44;5;4;
62054;PMS5003;48653;51.742;-1.256;2023-03-20T03:10:10;9;5;
62054;PMS5003;48653;51.742;-1.256;2023-03-20T03:12:35;5;3;
62054;PMS5003;48653;51.742;-1.256;2023-03-20T03:15:00;4;4;
62054;PMS5003;48653;51.742;-1.256;2023-03-20T03:17:26;4;3;
62054;PMS5003;48653;51.742;-1.256;2023-03-20T03:19:51;4;4;
62054;PMS5003;48653;51.742;-1.256;2023-03-20T03:22:16;4;3;
62054;PMS5003;48653;51.742;-1.256;2023-03-20T03:24:42;8;4;
62054;PMS5003;48653;51.742;-1.256;2023-03-20T03:27:08;3;3;
62054;PMS5003;48653;51.742;-1.256;2023-03-20T03:29:33;6;5;
62054;PMS5003;48653;51.742;-1.256;2023-03-20T03:31:57;8;5;
62054;PMS5003;48653;51.742;-1.256;2023-03-20T03:34:22;4;3;
62054;PMS5003;48653;51.742;-1.256;2023-03-20T03:36:48;3;2;
62054;PMS5003;48653;51.742;-1.256;2023-03-20T03:39:15;4;4;
62054;PMS5003;48653;51.742;-1.256;2023-03-20T03:41:38;6;2;
62054;PMS5003;48653;51.742;-1.256;2023-03-20T03:44:05;8;4;
62054;PMS5003;48653;51.742;-1.256;2023-03-20T03:46:29;6;3;
62054;PMS5003;48653;51.742;-1.256;2023-03-20T03:48:54;5;4;
62054;PMS5003;48653;51.742;-1.256;2023-03-20T03:51:19;3;3;
62054;PMS5003;48653;51.742;-1.256;2023-03-20T03:53:44;7;5;
62054;PMS5003;48653;51.742;-1.256;2023-03-20T03:56:09;8;6;
62054;PMS5003;48653;51.742;-1.256;2023-03-20T03:58:34;5;4;
62054;PMS5003;48653;51.742;-1.256;2023-03-20T04:00:58;6;4;
62054;PMS5003;48653;51.742;-1.256;2023-03-20T04:03:26;7;6;
62054;PMS5003;48653;51.742;-1.256;2023-03-20T04:05:49;9;5;
62054;PMS5003;48653;51.742;-1.256;2023-03-20T04:08:14;7;4;
62054;PMS5003;48653;51.742;-1.256;2023-03-20T04:10:39;5;3;
62054;PMS5003;48653;51.742;-1.256;2023-03-20T04:13:05;10;4;
62054;PMS5003;48653;51.742;-1.256;2023-03-20T04:15:30;5;4;
62054;PMS5003;48653;51.742;-1.256;2023-03-20T04:17:55;5;4;
62054;PMS5003;48653;51.742;-1.256;2023-03-20T04:20:20;6;4;
62054;PMS5003;48653;51.742;-1.256;2023-03-20T04:22:45;2;1;
62054;PMS5003;48653;51.742;-1.256;2023-03-20T04:25:14;3;3;
62054;PMS5003;48653;51.742;-1.256;2023-03-20T04:27:35;4;4;
62054;PMS5003;48653;51.742;-1.256;2023-03-20T04:30:01;7;4;
62054;PMS5003;48653;51.742;-1.256;2023-03-20T04:32:27;6;3;
62054;PMS5003;48653;51.742;-1.256;2023-03-20T04:34:52;7;4;
62054;PMS5003;48653;51.742;-1.256;2023-03-20T04:37:18;4;3;
62054;PMS5003;48653;51.742;-1.256;2023-03-20T04:39:43;5;4;
62054;PMS5003;48653;51.742;-1.256;2023-03-20T04:42:08;8;7;
62054;PMS5003;48653;51.742;-1.256;2023-03-20T04:44:34;6;4;
62054;PMS5003;48653;51.742;-1.256;2023-03-20T04:46:59;4;3;
62054;PMS5003;48653;51.742;-1.256;2023-03-20T04:49:24;6;4;
62054;PMS5003;48653;51.742;-1.256;2023-03-20T04:51:49;5;4;
62054;PMS5003;48653;51.742;-1.256;2023-03-20T04:54:15;6;5;
62054;PMS5003;48653;51.742;-1.256;2023-03-20T04:56:40;7;6;
62054;PMS5003;48653;51.742;-1.256;2023-03-20T04:59:05;6;4;
62054;PMS5003;48653;51.742;-1.256;2023-03-20T05:01:30;7;5;
62054;PMS5003;48653;51.742;-1.256;2023-03-20T05:03:56;3;2;
62054;PMS5003;48653;51.742;-1.256;2023-03-20T05:06:21;4;4;
62054;PMS5003;48653;51.742;-1.256;2023-03-20T05:08:47;7;2;
62054;PMS5003;48653;51.742;-1.256;2023-03-20T05:11:12;5;3;
62054;PMS5003;48653;51.742;-1.256;2023-03-20T05:13:37;3;3;
62054;PMS5003;48653;51.742;-1.256;2023-03-20T05:16:02;6;6;
62054;PMS5003;48653;51.742;-1.256;2023-03-20T05:18:28;7;6;
62054;PMS5003;48653;51.742;-1.256;2023-03-20T05:20:53;7;4;
62054;PMS5003;48653;51.742;-1.256;2023-03-20T05:23:18;6;2;
62054;PMS5003;48653;51.742;-1.256;2023-03-20T05:25:44;7;4;
62054;PMS5003;48653;51.742;-1.256;2023-03-20T05:28:09;5;5;
62054;PMS5003;48653;51.742;-1.256;2023-03-20T05:30:35;10;6;
62054;PMS5003;48653;51.742;-1.256;2023-03-20T05:33:00;5;4;
62054;PMS5003;48653;51.742;-1.256;2023-03-20T05:35:25;8;5;
62054;PMS5003;48653;51.742;-1.256;2023-03-20T05:37:51;15;6;
62054;PMS5003;48653;51.742;-1.256;2023-03-20T05:40:16;8;5;
62054;PMS5003;48653;51.742;-1.256;2023-03-20T05:42:41;10;5;
62054;PMS5003;48653;51.742;-1.256;2023-03-20T05:45:07;6;5;
62054;PMS5003;48653;51.742;-1.256;2023-03-20T05:47:32;10;6;
62054;PMS5003;48653;51.742;-1.256;2023-03-20T05:49:57;8;6;
62054;PMS5003;48653;51.742;-1.256;2023-03-20T05:52:23;6;4;
62054;PMS5003;48653;51.742;-1.256;2023-03-20T05:54:48;13;7;
62054;PMS5003;48653;51.742;-1.256;2023-03-20T05:57:13;6;3;
62054;PMS5003;48653;51.742;-1.256;2023-03-20T05:59:38;3;3;
62054;PMS5003;48653;51.742;-1.256;2023-03-20T06:02:04;9;5;
62054;PMS5003;48653;51.742;-1.256;2023-03-20T06:04:29;7;4;
62054;PMS5003;48653;51.742;-1.256;2023-03-20T06:06:54;7;6;
62054;PMS5003;48653;51.742;-1.256;2023-03-20T06:09:19;4;4;
62054;PMS5003;48653;51.742;-1.256;2023-03-20T06:11:45;9;6;
62054;PMS5003;48653;51.742;-1.256;2023-03-20T06:14:10;5;4;
62054;PMS5003;48653;51.742;-1.256;2023-03-20T06:16:36;8;5;
62054;PMS5003;48653;51.742;-1.256;2023-03-20T06:19:01;9;6;
62054;PMS5003;48653;51.742;-1.256;2023-03-20T06:21:26;9;4;
62054;PMS5003;48653;51.742;-1.256;2023-03-20T06:23:52;9;8;
62054;PMS5003;48653;51.742;-1.256;2023-03-20T06:26:18;6;6;
62054;PMS5003;48653;51.742;-1.256;2023-03-20T06:28:43;7;6;
62054;PMS5003;48653;51.742;-1.256;2023-03-20T06:31:08;7;6;
62054;PMS5003;48653;51.742;-1.256;2023-03-20T06:33:33;12;8;
62054;PMS5003;48653;51.742;-1.256;2023-03-20T06:35:59;7;5;
62054;PMS5003;48653;51.742;-1.256;2023-03-20T06:38:24;6;6;
62054;PMS5003;48653;51.742;-1.256;2023-03-20T06:40:50;7;7;
62054;PMS5003;48653;51.742;-1.256;2023-03-20T06:43:15;10;6;
62054;PMS5003;48653;51.742;-1.256;2023-03-20T06:45:40;9;8;
62054;PMS5003;48653;51.742;-1.256;2023-03-20T06:48:06;12;9;
62054;PMS5003;48653;51.742;-1.256;2023-03-20T06:50:31;7;7;
62054;PMS5003;48653;51.742;-1.256;2023-03-20T06:52:57;9;8;
62054;PMS5003;48653;51.742;-1.256;2023-03-20T06:55:22;10;8;
62054;PMS5003;48653;51.742;-1.256;2023-03-20T06:57:47;11;8;
62054;PMS5003;48653;51.742;-1.256;2023-03-20T07:00:13;13;10;
62054;PMS5003;48653;51.742;-1.256;2023-03-20T07:02:38;16;10;
62054;PMS5003;48653;51.742;-1.256;2023-03-20T07:05:03;11;8;
62054;PMS5003;48653;51.742;-1.256;2023-03-20T07:07:28;11;10;
62054;PMS5003;48653;51.742;-1.256;2023-03-20T07:09:54;14;12;
62054;PMS5003;48653;51.742;-1.256;2023-03-20T07:12:19;14;10;
62054;PMS5003;48653;51.742;-1.256;2023-03-20T07:14:44;9;9;
62054;PMS5003;48653;51.742;-1.256;2023-03-20T07:17:10;11;11;
62054;PMS5003;48653;51.742;-1.256;2023-03-20T07:19:35;12;11;
62054;PMS5003;48653;51.742;-1.256;2023-03-20T07:22:00;11;9;
62054;PMS5003;48653;51.742;-1.256;2023-03-20T07:24:26;12;11;
62054;PMS5003;48653;51.742;-1.256;2023-03-20T07:26:51;9;9;
62054;PMS5003;48653;51.742;-1.256;2023-03-20T07:29:16;11;10;
62054;PMS5003;48653;51.742;-1.256;2023-03-20T07:31:42;11;10;
62054;PMS5003;48653;51.742;-1.256;2023-03-20T07:34:08;13;10;
62054;PMS5003;48653;51.742;-1.256;2023-03-20T07:36:33;15;14;
62054;PMS5003;48653;51.742;-1.256;2023-03-20T07:38:58;16;13;
62054;PMS5003;48653;51.742;-1.256;2023-03-20T07:41:24;12;11;
62054;PMS5003;48653;51.742;-1.256;2023-03-20T07:43:50;13;13;
62054;PMS5003;48653;51.742;-1.256;2023-03-20T07:46:15;12;11;
62054;PMS5003;48653;51.742;-1.256;2023-03-20T07:48:41;12;10;
62054;PMS5003;48653;51.742;-1.256;2023-03-20T07:51:06;10;10;
62054;PMS5003;48653;51.742;-1.256;2023-03-20T07:53:31;10;10;
62054;PMS5003;48653;51.742;-1.256;2023-03-20T07:55:57;11;10;
62054;PMS5003;48653;51.742;-1.256;2023-03-20T07:58:22;14;10;
62054;PMS5003;48653;51.742;-1.256;2023-03-20T08:00:47;11;9;
62054;PMS5003;48653;51.742;-1.256;2023-03-20T08:03:12;10;10;
62054;PMS5003;48653;51.742;-1.256;2023-03-20T08:05:38;9;9;
62054;PMS5003;48653;51.742;-1.256;2023-03-20T08:08:03;13;11;
62054;PMS5003;48653;51.742;-1.256;2023-03-20T08:10:28;11;9;
62054;PMS5003;48653;51.742;-1.256;2023-03-20T08:12:53;16;11;
62054;PMS5003;48653;51.742;-1.256;2023-03-20T08:15:18;9;8;
62054;PMS5003;48653;51.742;-1.256;2023-03-20T08:17:44;8;7;
62054;PMS5003;48653;51.742;-1.256;2023-03-20T08:20:09;13;10;
62054;PMS5003;48653;51.742;-1.256;2023-03-20T08:22:34;9;9;
62054;PMS5003;48653;51.742;-1.256;2023-03-20T08:24:59;10;8;
62054;PMS5003;48653;51.742;-1.256;2023-03-20T08:27:24;11;9;
62054;PMS5003;48653;51.742;-1.256;2023-03-20T08:29:49;9;9;
62054;PMS5003;48653;51.742;-1.256;2023-03-20T08:32:15;13;10;
62054;PMS5003;48653;51.742;-1.256;2023-03-20T08:34:40;10;8;
62054;PMS5003;48653;51.742;-1.256;2023-03-20T08:37:05;9;7;
62054;PMS5003;48653;51.742;-1.256;2023-03-20T08:39:30;11;10;
62054;PMS5003;48653;51.742;-1.256;2023-03-20T08:41:56;11;7;
62054;PMS5003;48653;51.742;-1.256;2023-03-20T08:44:21;11;11;
62054;PMS5003;48653;51.742;-1.256;2023-03-20T08:46:46;10;10;
62054;PMS5003;48653;51.742;-1.256;2023-03-20T08:49:11;9;7;
62054;PMS5003;48653;51.742;-1.256;2023-03-20T08:51:37;10;10;
62054;PMS5003;48653;51.742;-1.256;2023-03-20T08:54:02;7;7;
62054;PMS5003;48653;51.742;-1.256;2023-03-20T08:56:28;5;5;
62054;PMS5003;48653;51.742;-1.256;2023-03-20T08:58:53;12;9;
62054;PMS5003;48653;51.742;-1.256;2023-03-20T09:01:19;10;10;
62054;PMS5003;48653;51.742;-1.256;2023-03-20T09:03:44;8;7;
62054;PMS5003;48653;51.742;-1.256;2023-03-20T09:06:09;11;11;
62054;PMS5003;48653;51.742;-1.256;2023-03-20T09:08:34;11;9;
62054;PMS5003;48653;51.742;-1.256;2023-03-20T09:10:59;7;6;
62054;PMS5003;48653;51.742;-1.256;2023-03-20T09:13:24;12;10;
62054;PMS5003;48653;51.742;-1.256;2023-03-20T09:15:49;9;8;
62054;PMS5003;48653;51.742;-1.256;2023-03-20T09:18:15;7;7;
62054;PMS5003;48653;51.742;-1.256;2023-03-20T09:20:40;8;7;
62054;PMS5003;48653;51.742;-1.256;2023-03-20T09:23:05;10;9;
62054;PMS5003;48653;51.742;-1.256;2023-03-20T09:25:30;8;6;
62054;PMS5003;48653;51.742;-1.256;2023-03-20T09:27:55;8;7;
62054;PMS5003;48653;51.742;-1.256;2023-03-20T09:30:20;7;7;
62054;PMS5003;48653;51.742;-1.256;2023-03-20T09:32:45;6;6;
62054;PMS5003;48653;51.742;-1.256;2023-03-20T09:35:10;6;6;
62054;PMS5003;48653;51.742;-1.256;2023-03-20T09:37:35;7;5;
62054;PMS5003;48653;51.742;-1.256;2023-03-20T09:40:01;10;10;
62054;PMS5003;48653;51.742;-1.256;2023-03-20T09:42:31;3;3;
62054;PMS5003;48653;51.742;-1.256;2023-03-20T09:44:54;7;6;
62054;PMS5003;48653;51.742;-1.256;2023-03-20T09:47:18;10;7;
62054;PMS5003;48653;51.742;-1.256;2023-03-20T09:49:44;5;5;
62054;PMS5003;48653;51.742;-1.256;2023-03-20T09:52:11;6;6;
62054;PMS5003;48653;51.742;-1.256;2023-03-20T09:54:33;5;5;
62054;PMS5003;48653;51.742;-1.256;2023-03-20T09:56:58;7;6;
62054;PMS5003;48653;51.742;-1.256;2023-03-20T09:59:24;9;6;
62054;PMS5003;48653;51.742;-1.256;2023-03-20T10:01:49;7;7;
62054;PMS5003;48653;51.742;-1.256;2023-03-20T10:04:14;6;6;
62054;PMS5003;48653;51.742;-1.256;2023-03-20T10:06:39;6;6;
62054;PMS5003;48653;51.742;-1.256;2023-03-20T10:09:10;11;7;
62054;PMS5003;48653;51.742;-1.256;2023-03-20T10:11:36;5;5;
62054;PMS5003;48653;51.742;-1.256;2023-03-20T10:13:58;7;6;
62054;PMS5003;48653;51.742;-1.256;2023-03-20T10:16:23;8;8;
62054;PMS5003;48653;51.742;-1.256;2023-03-20T10:18:48;6;5;
62054;PMS5003;48653;51.742;-1.256;2023-03-20T10:21:11;6;5;
62054;PMS5003;48653;51.742;-1.256;2023-03-20T10:23:38;8;8;
62054;PMS5003;48653;51.742;-1.256;2023-03-20T10:26:02;6;5;
62054;PMS5003;48653;51.742;-1.256;2023-03-20T10:28:27;5;5;
62054;PMS5003;48653;51.742;-1.256;2023-03-20T10:30:55;6;5;
62054;PMS5003;48653;51.742;-1.256;2023-03-20T10:33:18;4;4;
62054;PMS5003;48653;51.742;-1.256;2023-03-20T10:35:42;4;4;
62054;PMS5003;48653;51.742;-1.256;2023-03-20T10:38:11;5;5;
62054;PMS5003;48653;51.742;-1.256;2023-03-20T10:40:32;4;4;
62054;PMS5003;48653;51.742;-1.256;2023-03-20T10:42:58;4;4;
62054;PMS5003;48653;51.742;-1.256;2023-03-20T10:45:26;6;5;
62054;PMS5003;48653;51.742;-1.256;2023-03-20T10:47:47;4;3;
62054;PMS5003;48653;51.742;-1.256;2023-03-20T10:50:13;3;3;
62054;PMS5003;48653;51.742;-1.256;2023-03-20T10:52:37;4;4;
62054;PMS5003;48653;51.742;-1.256;2023-03-20T10:55:03;6;5;
62054;PMS5003;48653;51.742;-1.256;2023-03-20T10:57:28;2;2;
62054;PMS5003;48653;51.742;-1.256;2023-03-20T10:59:53;4;3;
62054;PMS5003;48653;51.742;-1.256;2023-03-20T11:02:18;3;3;
62054;PMS5003;48653;51.742;-1.256;2023-03-20T11:04:42;3;3;
62054;PMS5003;48653;51.742;-1.256;2023-03-20T11:07:08;5;3;
62054;PMS5003;48653;51.742;-1.256;2023-03-20T11:09:32;3;3;
62054;PMS5003;48653;51.742;-1.256;2023-03-20T11:11:58;4;4;
62054;PMS5003;48653;51.742;-1.256;2023-03-20T11:14:23;2;2;
62054;PMS5003;48653;51.742;-1.256;2023-03-20T11:16:48;4;3;
62054;PMS5003;48653;51.742;-1.256;2023-03-20T11:19:13;5;2;
62054;PMS5003;48653;51.742;-1.256;2023-03-20T11:24:03;1;1;
62054;PMS5003;48653;51.742;-1.256;2023-03-20T11:26:31;2;2;
62054;PMS5003;48653;51.742;-1.256;2023-03-20T11:28:54;2;2;
62054;PMS5003;48653;51.742;-1.256;2023-03-20T11:31:20;2;2;
62054;PMS5003;48653;51.742;-1.256;2023-03-20T11:33:44;2;1;
62054;PMS5003;48653;51.742;-1.256;2023-03-20T11:36:10;2;0;
62054;PMS5003;48653;51.742;-1.256;2023-03-20T11:38:34;1;1;
62054;PMS5003;48653;51.742;-1.256;2023-03-20T11:40:59;0;0;
62054;PMS5003;48653;51.742;-1.256;2023-03-20T11:43:25;0;0;
62054;PMS5003;48653;51.742;-1.256;2023-03-20T11:45:49;1;1;
62054;PMS5003;48653;51.742;-1.256;2023-03-20T11:48:15;2;1;
62054;PMS5003;48653;51.742;-1.256;2023-03-20T11:50:41;1;1;
62054;PMS5003;48653;51.742;-1.256;2023-03-20T11:55:30;1;0;
62054;PMS5003;48653;51.742;-1.256;2023-03-20T11:57:55;0;0;
62054;PMS5003;48653;51.742;-1.256;2023-03-20T12:00:20;0;0;
62054;PMS5003;48653;51.742;-1.256;2023-03-20T12:02:44;1;1;
62054;PMS5003;48653;51.742;-1.256;2023-03-20T12:05:19;0;0;
62054;PMS5003;48653;51.742;-1.256;2023-03-20T12:07:35;1;1;
62054;PMS5003;48653;51.742;-1.256;2023-03-20T12:10:00;2;2;
62054;PMS5003;48653;51.742;-1.256;2023-03-20T12:12:29;1;1;
62054;PMS5003;48653;51.742;-1.256;2023-03-20T12:14:52;3;0;
62054;PMS5003;48653;51.742;-1.256;2023-03-20T12:19:40;1;1;
62054;PMS5003;48653;51.742;-1.256;2023-03-20T12:22:07;1;1;
62054;PMS5003;48653;51.742;-1.256;2023-03-20T12:24:32;1;1;
62054;PMS5003;48653;51.742;-1.256;2023-03-20T12:26:57;0;0;
62054;PMS5003;48653;51.742;-1.256;2023-03-20T12:29:22;1;1;
62054;PMS5003;48653;51.742;-1.256;2023-03-20T12:31:46;0;0;
62054;PMS5003;48653;51.742;-1.256;2023-03-20T12:34:11;0;0;
62054;PMS5003;48653;51.742;-1.256;2023-03-20T12:36:36;0;0;
62054;PMS5003;48653;51.742;-1.256;2023-03-20T12:39:01;1;1;
62054;PMS5003;48653;51.742;-1.256;2023-03-20T12:41:27;1;1;
62054;PMS5003;48653;51.742;-1.256;2023-03-20T12:46:20;0;0;
62054;PMS5003;48653;51.742;-1.256;2023-03-20T12:48:44;0;0;
62054;PMS5003;48653;51.742;-1.256;2023-03-20T12:51:08;1;1;
62054;PMS5003;48653;51.742;-1.256;2023-03-20T12:53:36;2;2;
62054;PMS5003;48653;51.742;-1.256;2023-03-20T12:55:59;1;1;
62054;PMS5003;48653;51.742;-1.256;2023-03-20T12:58:24;1;1;
62054;PMS5003;48653;51.742;-1.256;2023-03-20T13:00:47;1;1;
62054;PMS5003;48653;51.742;-1.256;2023-03-20T13:03:17;0;0;
62054;PMS5003;48653;51.742;-1.256;2023-03-20T13:05:42;1;1;
62054;PMS5003;48653;51.742;-1.256;2023-03-20T13:08:05;2;2;
62054;PMS5003;48653;51.742;-1.256;2023-03-20T13:10:27;1;1;
62054;PMS5003;48653;51.742;-1.256;2023-03-20T13:12:55;2;2;
62054;PMS5003;48653;51.742;-1.256;2023-03-20T13:15:20;2;1;
62054;PMS5003;48653;51.742;-1.256;2023-03-20T13:17:43;2;2;
62054;PMS5003;48653;51.742;-1.256;2023-03-20T13:22:34;4;4;
62054;PMS5003;48653;51.742;-1.256;2023-03-20T13:25:00;3;2;
62054;PMS5003;48653;51.742;-1.256;2023-03-20T13:27:25;1;1;
62054;PMS5003;48653;51.742;-1.256;2023-03-20T13:29:49;2;2;
62054;PMS5003;48653;51.742;-1.256;2023-03-20T13:32:14;1;1;
62054;PMS5003;48653;51.742;-1.256;2023-03-20T13:34:42;1;1;
62054;PMS5003;48653;51.742;-1.256;2023-03-20T13:37:06;2;2;
62054;PMS5003;48653;51.742;-1.256;2023-03-20T13:39:32;2;2;
62054;PMS5003;48653;51.742;-1.256;2023-03-20T13:41:52;2;2;
62054;PMS5003;48653;51.742;-1.256;2023-03-20T13:44:17;3;3;
62054;PMS5003;48653;51.742;-1.256;2023-03-20T13:46:42;1;1;
62054;PMS5003;48653;51.742;-1.256;2023-03-20T13:49:11;2;2;
62054;PMS5003;48653;51.742;-1.256;2023-03-20T13:51:34;2;1;
62054;PMS5003;48653;51.742;-1.256;2023-03-20T13:54:02;2;2;
62054;PMS5003;48653;51.742;-1.256;2023-03-20T13:56:26;1;1;
62054;PMS5003;48653;51.742;-1.256;2023-03-20T13:58:51;1;1;
62054;PMS5003;48653;51.742;-1.256;2023-03-20T14:01:15;0;0;
62054;PMS5003;48653;51.742;-1.256;2023-03-20T14:03:39;0;0;
62054;PMS5003;48653;51.742;-1.256;2023-03-20T14:08:30;1;1;
62054;PMS5003;48653;51.742;-1.256;2023-03-20T14:10:54;1;1;
62054;PMS5003;48653;51.742;-1.256;2023-03-20T14:13:18;0;0;
62054;PMS5003;48653;51.742;-1.256;2023-03-20T14:15:45;0;0;
62054;PMS5003;48653;51.742;-1.256;2023-03-20T14:18:12;0;0;
62054;PMS5003;48653;51.742;-1.256;2023-03-20T14:20:35;0;0;
62054;PMS5003;48653;51.742;-1.256;2023-03-20T14:22:59;0;0;
62054;PMS5003;48653;51.742;-1.256;2023-03-20T14:25:24;0;0;
62054;PMS5003;48653;51.742;-1.256;2023-03-20T14:27:52;0;0;
62054;PMS5003;48653;51.742;-1.256;2023-03-20T14:37:34;0;0;
62054;PMS5003;48653;51.742;-1.256;2023-03-20T14:39:57;0;0;
62054;PMS5003;48653;51.742;-1.256;2023-03-20T14:42:22;1;0;
62054;PMS5003;48653;51.742;-1.256;2023-03-20T14:44:49;0;0;
62054;PMS5003;48653;51.742;-1.256;2023-03-20T14:47:16;1;1;
62054;PMS5003;48653;51.742;-1.256;2023-03-20T14:52:01;0;0;
62054;PMS5003;48653;51.742;-1.256;2023-03-20T14:54:26;0;0;
62054;PMS5003;48653;51.742;-1.256;2023-03-20T14:56:50;0;0;
62054;PMS5003;48653;51.742;-1.256;2023-03-20T14:59:15;1;1;
62054;PMS5003;48653;51.742;-1.256;2023-03-20T15:01:45;1;1;
62054;PMS5003;48653;51.742;-1.256;2023-03-20T15:04:05;1;1;
62054;PMS5003;48653;51.742;-1.256;2023-03-20T15:06:30;2;2;
62054;PMS5003;48653;51.742;-1.256;2023-03-20T15:08:56;1;1;
62054;PMS5003;48653;51.742;-1.256;2023-03-20T15:11:20;1;1;
62054;PMS5003;48653;51.742;-1.256;2023-03-20T15:13:45;1;1;
62054;PMS5003;48653;51.742;-1.256;2023-03-20T15:16:10;3;2;
62054;PMS5003;48653;51.742;-1.256;2023-03-20T15:18:36;3;1;
62054;PMS5003;48653;51.742;-1.256;2023-03-20T15:21:00;0;0;
62054;PMS5003;48653;51.742;-1.256;2023-03-20T15:23:25;3;2;
62054;PMS5003;48653;51.742;-1.256;2023-03-20T15:25:50;0;0;
62054;PMS5003;48653;51.742;-1.256;2023-03-20T15:28:16;1;1;
62054;PMS5003;48653;51.742;-1.256;2023-03-20T15:30:40;1;1;
62054;PMS5003;48653;51.742;-1.256;2023-03-20T15:33:06;0;0;
62054;PMS5003;48653;51.742;-1.256;2023-03-20T15:35:30;1;1;
62054;PMS5003;48653;51.742;-1.256;2023-03-20T15:37:56;2;2;
62054;PMS5003;48653;51.742;-1.256;2023-03-20T15:40:22;1;1;
62054;PMS5003;48653;51.742;-1.256;2023-03-20T15:45:15;3;3;
62054;PMS5003;48653;51.742;-1.256;2023-03-20T15:47:36;2;2;
62054;PMS5003;48653;51.742;-1.256;2023-03-20T15:50:01;2;2;
62054;PMS5003;48653;51.742;-1.256;2023-03-20T15:52:28;2;2;
62054;PMS5003;48653;51.742;-1.256;2023-03-20T15:54:51;2;2;
62054;PMS5003;48653;51.742;-1.256;2023-03-20T15:57:17;4;2;
62054;PMS5003;48653;51.742;-1.256;2023-03-20T15:59:41;3;3;
62054;PMS5003;48653;51.742;-1.256;2023-03-20T16:02:07;1;1;
62054;PMS5003;48653;51.742;-1.256;2023-03-20T16:04:31;2;2;
62054;PMS5003;48653;51.742;-1.256;2023-03-20T16:06:57;3;3;
62054;PMS5003;48653;51.742;-1.256;2023-03-20T16:09:21;2;2;
62054;PMS5003;48653;51.742;-1.256;2023-03-20T16:11:47;2;2;
62054;PMS5003;48653;51.742;-1.256;2023-03-20T16:14:13;2;2;
62054;PMS5003;48653;51.742;-1.256;2023-03-20T16:16:36;2;2;
62054;PMS5003;48653;51.742;-1.256;2023-03-20T16:19:02;2;2;
62054;PMS5003;48653;51.742;-1.256;2023-03-20T16:21:27;2;2;
62054;PMS5003;48653;51.742;-1.256;2023-03-20T16:23:52;2;2;
62054;PMS5003;48653;51.742;-1.256;2023-03-20T16:26:17;2;2;
62054;PMS5003;48653;51.742;-1.256;2023-03-20T16:28:43;1;1;
62054;PMS5003;48653;51.742;-1.256;2023-03-20T16:31:07;1;1;
62054;PMS5003;48653;51.742;-1.256;2023-03-20T16:33:32;2;2;
62054;PMS5003;48653;51.742;-1.256;2023-03-20T16:35:57;1;1;
62054;PMS5003;48653;51.742;-1.256;2023-03-20T16:38:23;2;2;
62054;PMS5003;48653;51.742;-1.256;2023-03-20T16:40:48;2;2;
62054;PMS5003;48653;51.742;-1.256;2023-03-20T16:43:13;3;2;
62054;PMS5003;48653;51.742;-1.256;2023-03-20T16:45:38;2;2;
62054;PMS5003;48653;51.742;-1.256;2023-03-20T16:50:32;1;1;
62054;PMS5003;48653;51.742;-1.256;2023-03-20T16:52:58;2;2;
62054;PMS5003;48653;51.742;-1.256;2023-03-20T16:55:21;1;1;